Time;durP1;ratioP1;P1;durP2;ratioP2;P2;SDS_P1;SDS_P2;PMS_P1;PMS_P2;Temp;Humidity;BMP_temperature;BMP_pressure;BME280_temperature;BME280_humidity;BME280_pressure;Samples;Min_cycle;Max_cycle;Signal;HPM_P1;HPM_P2
2023/10/17 00:01:44;;;;;;;2.88;1.60;;;16.00;89.10;;;;;;4959298;28;20042;-38
2023/10/17 00:06:50;;;;;;;2.58;1.30;;;16.00;89.10;;;;;;4959451;28;20102;-38
2023/10/17 00:09:23;;;;;;;2.58;1.50;;;16.00;89.00;;;;;;4959285;29;20118;-39
2023/10/17 00:14:19;;;;;;;1.50;1.17;;;16.00;89.00;;;;;;4959193;29;20023;-37
2023/10/17 00:16:45;;;;;;;1.77;1.20;;;16.00;89.00;;;;;;4959140;29;20031;-38
2023/10/17 00:19:10;;;;;;;2.03;1.20;;;16.00;88.90;;;;;;4959413;28;20034;-37
2023/10/17 00:21:37;;;;;;;2.17;1.30;;;16.00;88.90;;;;;;4959277;29;20559;-37
2023/10/17 00:24:08;;;;;;;3.63;1.45;;;16.00;88.80;;;;;;4959228;29;20050;-38
2023/10/17 00:26:36;;;;;;;2.70;1.48;;;16.00;88.70;;;;;;4959116;28;20031;-38
2023/10/17 00:29:05;;;;;;;2.35;1.38;;;16.00;88.70;;;;;;4958970;29;20082;-38
2023/10/17 00:31:31;;;;;;;2.10;1.23;;;16.00;88.70;;;;;;4959286;29;20385;-38
2023/10/17 00:34:00;;;;;;;3.50;1.30;;;16.00;88.80;;;;;;4959415;29;20063;-40
2023/10/17 00:36:29;;;;;;;2.50;1.38;;;16.00;88.70;;;;;;4958915;28;20034;-39
2023/10/17 00:39:08;;;;;;;2.10;1.27;;;16.00;88.70;;;;;;4958853;29;20035;-38
2023/10/17 00:41:49;;;;;;;1.90;1.20;;;16.00;88.70;;;;;;4958948;28;20038;-38
2023/10/17 00:44:17;;;;;;;2.05;1.30;;;15.90;88.60;;;;;;4973920;28;20516;-38
2023/10/17 00:46:43;;;;;;;2.67;1.30;;;15.90;88.50;;;;;;4957791;28;20030;-40
2023/10/17 00:49:10;;;;;;;2.90;1.20;;;16.00;88.50;;;;;;4955701;29;20030;-39
2023/10/17 00:51:39;;;;;;;1.77;1.33;;;15.90;88.40;;;;;;4955900;29;20027;-39
2023/10/17 00:54:06;;;;;;;1.98;1.40;;;15.90;89.20;;;;;;4955788;28;20030;-37
2023/10/17 00:56:32;;;;;;;1.95;1.20;;;15.90;88.50;;;;;;4955780;28;20023;-42
2023/10/17 00:58:58;;;;;;;2.40;1.20;;;15.90;88.40;;;;;;4955880;28;20126;-38
2023/10/17 01:01:27;;;;;;;1.77;1.20;;;15.90;88.40;;;;;;4955811;29;20059;-38
2023/10/17 01:03:54;;;;;;;1.70;1.30;;;15.90;88.40;;;;;;4955731;29;20024;-38
2023/10/17 01:08:51;;;;;;;2.45;1.25;;;15.90;88.20;;;;;;4955633;29;20043;-38
2023/10/17 01:11:22;;;;;;;2.30;1.45;;;15.90;88.20;;;;;;4955515;29;20515;-38
2023/10/17 01:13:50;;;;;;;1.67;1.10;;;15.90;88.30;;;;;;4955615;29;20024;-40
2023/10/17 01:16:16;;;;;;;1.50;1.10;;;15.80;88.90;;;;;;4955790;29;20027;-38
2023/10/17 01:18:46;;;;;;;1.75;1.00;;;15.80;88.10;;;;;;4955386;29;20026;-39
2023/10/17 01:21:18;;;;;;;2.85;1.35;;;15.80;88.10;;;;;;4955248;29;20066;-38
2023/10/17 01:23:44;;;;;;;1.67;1.13;;;15.80;88.10;;;;;;4955423;29;20027;-38
2023/10/17 01:26:14;;;;;;;2.55;1.25;;;15.80;88.10;;;;;;4955147;29;20039;-39
2023/10/17 01:28:45;;;;;;;1.92;1.30;;;15.80;88.00;;;;;;4955396;29;20042;-40
2023/10/17 01:31:14;;;;;;;2.03;1.00;;;15.80;88.00;;;;;;4955237;29;20031;-39
2023/10/17 01:33:43;;;;;;;1.63;1.10;;;15.80;87.90;;;;;;4955214;28;20082;-40
2023/10/17 01:36:13;;;;;;;2.05;1.27;;;15.80;88.00;;;;;;4955111;29;20051;-38
2023/10/17 01:38:42;;;;;;;2.00;1.30;;;15.80;88.00;;;;;;4954960;28;20039;-40
2023/10/17 01:41:09;;;;;;;1.35;1.02;;;15.80;88.00;;;;;;4955632;29;20092;-35
2023/10/17 01:43:40;;;;;;;1.33;1.08;;;15.80;87.90;;;;;;4954972;28;20126;-36
2023/10/17 01:46:08;;;;;;;1.60;1.10;;;15.80;88.00;;;;;;4954726;29;20393;-36
2023/10/17 01:48:35;;;;;;;1.70;0.93;;;15.70;88.60;;;;;;4954895;29;20027;-36
2023/10/17 01:51:07;;;;;;;1.77;1.17;;;15.80;87.90;;;;;;4955107;28;20035;-37
2023/10/17 01:53:35;;;;;;;1.85;1.10;;;15.80;87.90;;;;;;4954814;29;20027;-36
2023/10/17 01:56:07;;;;;;;1.42;1.05;;;15.70;87.90;;;;;;4954517;28;20429;-36
2023/10/17 01:58:37;;;;;;;1.17;0.90;;;15.80;87.80;;;;;;4969213;28;20030;-35
2023/10/17 02:01:03;;;;;;;1.52;1.05;;;15.80;87.80;;;;;;4954962;28;20027;-35
2023/10/17 02:03:30;;;;;;;2.30;1.30;;;15.80;87.70;;;;;;4954877;28;20046;-36
2023/10/17 02:05:55;;;;;;;1.55;1.00;;;15.70;87.60;;;;;;4954485;29;20023;-36
2023/10/17 02:08:22;;;;;;;2.15;1.13;;;15.70;87.60;;;;;;4954633;28;20457;-36
2023/10/17 02:10:48;;;;;;;1.70;1.10;;;15.70;87.60;;;;;;4954609;29;20054;-35
2023/10/17 02:13:14;;;;;;;1.55;1.00;;;15.70;87.60;;;;;;4954329;29;20633;-35
2023/10/17 02:15:40;;;;;;;2.10;1.08;;;15.70;87.50;;;;;;4954356;29;20025;-35
2023/10/17 02:18:12;;;;;;;1.95;1.10;;;15.70;87.50;;;;;;4954321;28;20114;-35
2023/10/17 02:20:44;;;;;;;2.55;1.05;;;15.70;87.50;;;;;;4954200;29;20035;-35
2023/10/17 02:23:28;;;;;;;1.67;1.25;;;15.70;87.60;;;;;;4954281;29;20046;-35
2023/10/17 02:25:54;;;;;;;2.08;1.20;;;15.70;87.40;;;;;;4954146;29;20098;-35
2023/10/17 02:28:20;;;;;;;1.88;1.30;;;15.70;87.50;;;;;;4954141;29;20097;-42
2023/10/17 02:30:45;;;;;;;1.75;1.10;;;15.70;87.50;;;;;;4954133;29;20492;-41
2023/10/17 02:33:16;;;;;;;3.88;1.10;;;15.70;87.40;;;;;;4954394;29;20019;-39
2023/10/17 02:38:36;;;;;;;1.43;1.10;;;15.70;87.30;;;;;;4954212;29;20508;-39
2023/10/17 02:41:03;;;;;;;1.67;1.00;;;15.60;87.30;;;;;;4954105;29;20027;-40
2023/10/17 02:43:29;;;;;;;3.00;1.02;;;15.70;87.30;;;;;;4953914;29;20122;-41
2023/10/17 02:46:04;;;;;;;1.85;1.15;;;15.70;87.30;;;;;;4953769;28;20196;-40
2023/10/17 02:48:29;;;;;;;1.52;1.00;;;15.60;87.30;;;;;;4968433;28;20497;-38
2023/10/17 02:50:58;;;;;;;1.35;0.90;;;15.60;87.20;;;;;;4953867;29;20031;-39
2023/10/17 02:53:24;;;;;;;2.25;1.10;;;15.60;87.20;;;;;;4953951;29;20031;-38
2023/10/17 02:55:50;;;;;;;1.40;1.00;;;15.60;87.20;;;;;;4953628;29;20032;-38
2023/10/17 02:58:16;;;;;;;1.75;1.13;;;15.60;87.30;;;;;;4953601;29;20078;-38
2023/10/17 03:00:47;;;;;;;2.67;1.33;;;15.60;87.10;;;;;;4953588;28;20033;-39
2023/10/17 03:03:14;;;;;;;2.05;1.30;;;15.60;87.10;;;;;;4953548;28;20086;-43
2023/10/17 03:05:44;;;;;;;2.10;1.20;;;15.60;87.10;;;;;;4953674;29;20054;-42
2023/10/17 03:08:15;;;;;;;1.58;1.13;;;15.60;87.10;;;;;;4953636;29;20386;-42
2023/10/17 03:10:42;;;;;;;1.40;1.00;;;15.60;87.20;;;;;;4953039;28;20023;-41
2023/10/17 03:15:48;;;;;;;2.05;1.20;;;15.60;87.20;;;;;;4953333;29;20023;-41
2023/10/17 03:18:16;;;;;;;1.48;1.10;;;15.60;87.10;;;;;;4953377;28;20031;-41
2023/10/17 03:20:50;;;;;;;1.80;1.08;;;15.60;87.10;;;;;;4953579;29;20595;-39
2023/10/17 03:23:16;;;;;;;1.92;1.10;;;15.60;87.10;;;;;;4953474;28;20042;-39
2023/10/17 03:25:46;;;;;;;1.30;1.00;;;15.60;87.10;;;;;;4953242;29;20093;-43
2023/10/17 03:28:15;;;;;;;2.10;1.45;;;15.60;87.10;;;;;;4953154;29;20508;-41
2023/10/17 03:30:48;;;;;;;1.73;1.23;;;15.60;87.10;;;;;;4953224;29;20031;-44
2023/10/17 03:33:14;;;;;;;2.03;1.20;;;15.50;87.10;;;;;;4953164;29;20038;-39
2023/10/17 03:36:04;;;;;;;1.50;0.88;;;15.60;87.10;;;;;;4953104;28;20031;-43
2023/10/17 03:38:36;;;;;;;2.20;1.20;;;15.50;87.10;;;;;;4952954;29;20070;-39
2023/10/17 03:41:23;;;;;;;1.63;1.20;;;15.50;87.10;;;;;;4953192;28;20477;-39
2023/10/17 03:43:52;;;;;;;1.77;1.10;;;15.50;87.00;;;;;;4953218;29;20031;-40
2023/10/17 03:46:19;;;;;;;1.52;1.15;;;15.60;87.00;;;;;;4952988;29;20027;-39
2023/10/17 03:48:57;;;;;;;1.90;1.20;;;15.50;86.90;;;;;;4953061;29;20030;-39
2023/10/17 03:51:25;;;;;;;1.33;1.13;;;15.50;87.00;;;;;;4953097;29;20047;-38
2023/10/17 03:53:53;;;;;;;1.63;1.10;;;15.50;87.00;;;;;;4953087;29;20023;-39
2023/10/17 03:56:35;;;;;;;1.50;1.05;;;15.50;87.00;;;;;;4952873;29;20027;-41
2023/10/17 04:01:39;;;;;;;2.13;1.30;;;15.50;87.00;;;;;;4953248;29;20035;-42
2023/10/17 04:04:05;;;;;;;1.80;1.27;;;15.50;87.00;;;;;;4952986;29;20075;-41
2023/10/17 04:06:40;;;;;;;1.92;1.23;;;15.50;86.90;;;;;;4952891;29;20031;-42
2023/10/17 04:11:52;;;;;;;2.83;1.17;;;15.50;86.90;;;;;;4952801;29;20400;-39
2023/10/17 04:14:20;;;;;;;2.20;1.20;;;15.50;87.60;;;;;;4952940;29;20070;-40
2023/10/17 04:16:48;;;;;;;2.50;1.30;;;15.50;86.90;;;;;;4952761;29;20023;-39
2023/10/17 04:19:20;;;;;;;1.45;1.20;;;15.50;86.90;;;;;;4952848;29;20023;-42
2023/10/17 04:22:20;;;;;;;1.40;1.00;;;15.50;86.90;;;;;;4951605;28;20516;-45
2023/10/17 04:24:39;;;;;;;1.77;1.20;;;15.40;86.80;;;;;;4956246;29;20064;-40
2023/10/17 04:29:44;;;;;;;1.65;1.10;;;15.50;86.90;;;;;;4956504;29;20112;-38
2023/10/17 04:32:13;;;;;;;2.15;1.25;;;15.40;86.90;;;;;;4956293;29;20089;-38
2023/10/17 04:34:48;;;;;;;2.25;1.17;;;15.50;86.80;;;;;;4956119;28;20027;-38
2023/10/17 04:37:18;;;;;;;1.52;1.10;;;15.40;86.80;;;;;;4956198;29;20023;-38
2023/10/17 04:39:48;;;;;;;1.42;1.15;;;15.40;86.80;;;;;;4956044;28;20038;-37
2023/10/17 04:42:19;;;;;;;2.03;1.20;;;15.40;86.90;;;;;;4956234;29;20040;-38
2023/10/17 04:45:03;;;;;;;2.00;1.35;;;15.40;86.80;;;;;;4956112;28;20042;-40
2023/10/17 04:47:30;;;;;;;2.30;1.38;;;15.40;86.80;;;;;;4955908;28;20477;-40
2023/10/17 04:49:56;;;;;;;1.20;1.10;;;15.40;86.80;;;;;;4956319;28;20054;-38
2023/10/17 04:52:40;;;;;;;1.70;1.20;;;15.40;86.80;;;;;;4955962;29;20035;-38
2023/10/17 04:55:21;;;;;;;2.33;1.13;;;15.40;86.70;;;;;;4955948;28;20047;-39
2023/10/17 05:03:32;;;;;;;1.95;1.30;;;15.40;86.80;;;;;;4955800;29;20087;-35
2023/10/17 05:09:00;;;;;;;2.22;1.27;;;15.40;87.50;;;;;;4955960;28;20035;-37
2023/10/17 06:17:07;;;;;;;1.85;1.10;;;15.40;86.90;;;;;;4954363;29;20089;-39
2023/10/17 06:19:32;;;;;;;2.78;1.60;;;15.40;87.00;;;;;;4954560;29;20023;-39
2023/10/17 06:27:43;;;;;;;2.28;1.50;;;15.40;87.00;;;;;;4954211;29;20046;-40
2023/10/17 06:35:13;;;;;;;1.85;1.30;;;15.40;87.00;;;;;;4954291;29;20272;-39
2023/10/17 06:37:42;;;;;;;1.58;1.30;;;15.40;87.00;;;;;;4953930;29;20378;-39
2023/10/17 06:40:15;;;;;;;2.08;1.40;;;15.40;87.00;;;;;;4953921;29;20398;-41
2023/10/17 06:42:48;;;;;;;1.90;1.38;;;15.40;87.00;;;;;;4953996;29;20031;-39
2023/10/17 06:45:18;;;;;;;2.67;1.70;;;15.40;87.10;;;;;;4953116;28;20031;-39
2023/10/17 06:47:48;;;;;;;1.88;1.20;;;15.40;87.10;;;;;;4953832;29;20035;-40
2023/10/17 06:53:02;;;;;;;2.08;1.60;;;15.40;87.10;;;;;;4953753;29;20401;-41
2023/10/17 06:55:35;;;;;;;2.28;1.40;;;15.40;87.10;;;;;;4953450;28;20401;-41
2023/10/17 06:58:09;;;;;;;1.88;1.17;;;15.40;87.10;;;;;;4953730;29;20102;-43
2023/10/17 07:00:44;;;;;;;2.75;1.33;;;15.40;87.10;;;;;;4953500;29;20027;-41
2023/10/17 07:03:13;;;;;;;1.65;1.23;;;15.40;87.10;;;;;;4953684;28;20463;-39
2023/10/17 07:05:39;;;;;;;1.98;1.35;;;15.40;87.20;;;;;;4953639;29;20412;-39
2023/10/17 07:08:13;;;;;;;2.42;1.27;;;15.40;87.20;;;;;;4953624;28;20031;-39
2023/10/17 07:10:39;;;;;;;1.48;1.25;;;15.40;87.20;;;;;;4953624;29;20105;-43
2023/10/17 07:13:48;;;;;;;1.95;1.60;;;15.40;87.20;;;;;;4953403;29;20051;-46
2023/10/17 07:16:16;;;;;;;3.22;1.20;;;15.40;87.30;;;;;;4953328;29;20077;-38
2023/10/17 07:18:45;;;;;;;2.28;1.60;;;15.40;87.30;;;;;;4953403;28;20015;-43
2023/10/17 07:23:44;;;;;;;1.75;1.33;;;15.40;87.30;;;;;;4953602;29;20038;-39
2023/10/17 07:26:12;;;;;;;2.30;1.50;;;15.40;87.30;;;;;;4953207;29;20083;-42
2023/10/17 07:28:42;;;;;;;2.08;1.35;;;15.50;87.40;;;;;;4953288;29;20024;-39
2023/10/17 07:31:11;;;;;;;3.03;1.30;;;15.50;87.40;;;;;;4953290;29;20118;-42
2023/10/17 07:33:38;;;;;;;2.20;1.40;;;15.40;87.30;;;;;;4953820;29;20023;-39
2023/10/17 07:36:06;;;;;;;2.25;1.48;;;15.50;87.40;;;;;;4953078;28;20023;-43
2023/10/17 07:38:31;;;;;;;1.73;1.27;;;15.40;87.40;;;;;;4953103;29;20024;-39
2023/10/17 07:41:12;;;;;;;2.03;1.30;;;15.50;87.50;;;;;;4953840;29;20028;-38
2023/10/17 07:43:44;;;;;;;2.13;1.60;;;15.50;87.50;;;;;;4953703;28;20027;-37
2023/10/17 07:46:18;;;;;;;3.88;1.60;;;15.50;87.50;;;;;;4953130;29;20090;-39
2023/10/17 07:48:48;;;;;;;;;;;15.50;87.50;;;;;;4953595;29;20051;-39
2023/10/17 07:51:18;;;;;;;3.40;1.35;;;15.50;87.50;;;;;;4953101;28;20390;-38
2023/10/17 07:53:47;;;;;;;2.20;1.20;;;15.50;88.30;;;;;;4953135;29;20135;-38
2023/10/17 07:56:23;;;;;;;2.30;1.40;;;15.50;87.50;;;;;;4953433;28;20045;-38
2023/10/17 07:59:04;;;;;;;2.55;1.58;;;15.50;87.60;;;;;;4956866;29;20421;-41
2023/10/17 08:01:41;;;;;;;2.15;1.50;;;15.50;87.60;;;;;;4956927;28;20028;-40
2023/10/17 08:04:17;;;;;;;2.42;1.60;;;15.50;87.60;;;;;;4957101;28;20340;-38
2023/10/17 08:06:44;;;;;;;2.28;1.33;;;15.60;87.70;;;;;;4956738;29;20541;-41
2023/10/17 08:11:50;;;;;;;1.58;1.30;;;15.60;87.70;;;;;;4956713;29;20492;-40
2023/10/17 08:14:17;;;;;;;2.88;1.55;;;15.60;87.80;;;;;;4956708;29;20494;-39
2023/10/17 08:16:43;;;;;;;2.97;1.50;;;15.60;87.80;;;;;;4956554;29;20027;-42
2023/10/17 08:19:12;;;;;;;2.17;1.55;;;15.60;87.70;;;;;;4956611;29;20030;-41
2023/10/17 08:24:26;;;;;;;2.42;1.80;;;15.60;87.90;;;;;;4956871;29;20429;-41
2023/10/17 08:29:38;;;;;;;3.85;2.00;;;15.60;88.00;;;;;;4956979;29;20449;-36
2023/10/17 08:32:20;;;;;;;3.88;1.70;;;15.60;87.90;;;;;;4956243;29;20441;-36
2023/10/17 08:34:59;;;;;;;2.88;1.60;;;15.60;87.90;;;;;;4956292;29;20086;-36
2023/10/17 08:37:30;;;;;;;4.72;1.92;;;15.70;88.00;;;;;;4956203;29;20074;-36
2023/10/17 08:39:59;;;;;;;2.42;1.85;;;15.60;87.90;;;;;;4956137;28;20058;-35
2023/10/17 08:42:31;;;;;;;3.05;1.92;;;15.70;88.10;;;;;;4956124;29;20039;-38
2023/10/17 08:44:59;;;;;;;5.88;2.10;;;15.70;88.10;;;;;;4956065;29;20027;-37
2023/10/17 08:47:27;;;;;;;2.00;1.45;;;15.70;88.20;;;;;;4956246;28;20031;-36
2023/10/17 08:49:55;;;;;;;2.45;1.80;;;15.70;88.20;;;;;;4956308;28;20118;-35
2023/10/17 08:52:27;;;;;;;3.40;2.20;;;15.70;88.20;;;;;;4956347;29;20397;-36
2023/10/17 08:54:56;;;;;;;2.92;1.83;;;15.70;88.20;;;;;;4955957;29;20543;-35
2023/10/17 08:57:22;;;;;;;4.40;1.83;;;15.70;89.00;;;;;;4955743;29;20440;-35
2023/10/17 09:02:28;;;;;;;2.67;1.77;;;15.70;88.30;;;;;;4956040;29;20067;-37
2023/10/17 09:05:06;;;;;;;2.65;1.90;;;15.70;88.40;;;;;;4955758;29;20040;-37
2023/10/17 09:07:32;;;;;;;3.13;1.60;;;15.70;88.40;;;;;;4971363;28;20539;-37
2023/10/17 09:10:15;;;;;;;2.85;1.90;;;15.70;88.40;;;;;;4955099;28;20039;-37
2023/10/17 09:13:14;;;;;;;2.80;2.00;;;15.70;88.40;;;;;;4955892;29;20478;-36
2023/10/17 09:15:39;;;;;;;3.22;1.90;;;15.70;88.40;;;;;;4955536;28;20035;-39
2023/10/17 09:18:08;;;;;;;3.67;1.70;;;15.80;88.50;;;;;;4955587;29;20106;-36
2023/10/17 09:20:39;;;;;;;2.35;1.95;;;15.70;88.40;;;;;;4955430;29;20029;-37
2023/10/17 09:23:24;;;;;;;3.00;1.70;;;15.80;88.50;;;;;;4955537;29;20023;-35
2023/10/17 09:26:12;;;;;;;3.75;1.83;;;15.80;88.50;;;;;;4955455;29;20031;-35
2023/10/17 09:28:39;;;;;;;4.63;1.75;;;15.70;88.50;;;;;;4955381;29;20419;-35
2023/10/17 09:31:09;;;;;;;2.42;1.40;;;15.80;88.60;;;;;;4955659;29;20436;-35
2023/10/17 09:33:43;;;;;;;1.92;1.70;;;15.80;88.60;;;;;;4955572;29;20031;-35
2023/10/17 09:36:09;;;;;;;2.75;1.92;;;15.80;88.60;;;;;;4955238;28;20024;-35
2023/10/17 09:38:43;;;;;;;2.88;1.80;;;15.80;88.60;;;;;;4955097;29;20042;-35
2023/10/17 09:41:17;;;;;;;4.10;1.90;;;15.80;88.70;;;;;;4955052;29;20500;-35
2023/10/17 09:43:43;;;;;;;3.20;2.20;;;15.80;88.70;;;;;;4955234;29;20401;-35
2023/10/17 09:46:10;;;;;;;3.25;1.92;;;15.80;89.50;;;;;;4954838;29;20031;-35
2023/10/17 09:48:37;;;;;;;3.33;1.83;;;15.80;88.80;;;;;;4954959;29;20421;-35
2023/10/17 09:51:04;;;;;;;2.63;2.00;;;15.80;88.80;;;;;;4954998;29;20038;-36
2023/10/17 09:53:35;;;;;;;2.28;1.60;;;15.80;88.80;;;;;;4954779;29;20042;-36
2023/10/17 09:56:11;;;;;;;3.38;1.80;;;15.80;88.80;;;;;;4969505;28;20118;-36
2023/10/17 09:58:40;;;;;;;2.67;1.80;;;15.80;88.80;;;;;;4954840;29;20027;-38
2023/10/17 10:01:15;;;;;;;15.02;9.75;;;15.80;88.90;;;;;;4971595;28;20046;-35
2023/10/17 10:03:42;;;;;;;16.27;9.43;;;15.60;90.10;;;;;;4973939;28;20029;-38
2023/10/17 10:06:22;;;;;;;18.23;9.98;;;15.30;90.50;;;;;;4973839;28;20397;-35
2023/10/17 10:08:54;;;;;;;14.80;9.45;;;14.70;91.10;;;;;;4963576;28;20031;-35
2023/10/17 10:11:19;;;;;;;17.60;11.95;;;14.30;91.80;;;;;;4954462;29;20397;-35
2023/10/17 10:14:02;;;;;;;14.75;9.45;;;13.90;92.70;;;;;;4953310;29;20023;-35
2023/10/17 10:16:51;;;;;;;15.45;12.30;;;13.50;93.20;;;;;;4934819;29;20083;-35
2023/10/17 10:19:17;;;;;;;13.43;9.40;;;13.50;93.40;;;;;;4935420;29;20051;-37
2023/10/17 10:21:57;;;;;;;44.00;26.58;;;13.50;93.60;;;;;;4935184;29;20027;-35
2023/10/17 10:24:27;;;;;;;28.60;19.83;;;13.40;93.70;;;;;;4935062;29;20031;-38
2023/10/17 10:27:16;;;;;;;15.07;10.38;;;13.40;94.10;;;;;;4934858;29;20526;-40
2023/10/17 10:29:44;;;;;;;13.73;9.90;;;13.10;94.30;;;;;;4917999;29;20102;-34
2023/10/17 10:32:25;;;;;;;13.85;10.35;;;12.90;94.50;;;;;;4939613;29;20027;-35
2023/10/17 10:34:52;;;;;;;14.43;10.00;;;12.90;95.00;;;;;;4954057;29;20548;-34
2023/10/17 10:37:20;;;;;;;23.13;11.15;;;12.80;95.00;;;;;;4953932;29;20063;-36
2023/10/17 10:40:26;;;;;;;14.50;10.15;;;12.90;95.10;;;;;;4953718;29;20034;-36
2023/10/17 10:42:59;;;;;;;12.98;8.82;;;13.00;94.90;;;;;;4857515;29;20037;-34
2023/10/17 10:45:29;;;;;;;16.23;9.27;;;13.00;95.10;;;;;;4857507;29;20374;-34
2023/10/17 10:47:58;;;;;;;19.23;8.75;;;13.00;95.20;;;;;;4911145;29;20520;-34
2023/10/17 10:50:29;;;;;;;14.13;8.93;;;13.10;95.10;;;;;;4953814;29;20031;-34
2023/10/17 10:52:56;;;;;;;15.30;8.23;;;13.20;95.10;;;;;;4953835;29;20038;-35
2023/10/17 10:55:24;;;;;;;16.48;8.88;;;13.30;95.00;;;;;;4953804;28;20023;-35
2023/10/17 10:57:51;;;;;;;13.43;7.95;;;13.40;95.20;;;;;;4936330;29;20106;-39
2023/10/17 11:00:17;;;;;;;12.90;8.95;;;13.30;94.80;;;;;;4953684;29;20027;-35
2023/10/17 11:02:43;;;;;;;11.05;7.40;;;13.40;95.00;;;;;;4953751;29;20031;-35
2023/10/17 11:05:14;;;;;;;12.60;7.88;;;13.40;94.50;;;;;;4953625;29;20110;-35
2023/10/17 11:07:41;;;;;;;11.65;7.72;;;13.40;94.90;;;;;;4952565;29;20032;-35
2023/10/17 11:10:10;;;;;;;15.00;7.55;;;13.40;94.90;;;;;;4953230;29;20114;-37
2023/10/17 11:12:37;;;;;;;13.32;7.95;;;13.40;94.90;;;;;;4953253;29;20027;-37
2023/10/17 11:15:14;;;;;;;14.75;9.45;;;13.50;95.50;;;;;;4953354;29;20020;-36
2023/10/17 11:17:43;;;;;;;14.05;8.55;;;13.60;95.80;;;;;;4952555;29;20035;-34
2023/10/17 11:20:14;;;;;;;11.80;7.97;;;13.60;95.70;;;;;;4953429;29;20035;-36
2023/10/17 11:22:44;;;;;;;13.02;9.07;;;13.60;95.60;;;;;;4953748;29;20027;-35
2023/10/17 11:25:27;;;;;;;12.63;8.73;;;13.70;95.70;;;;;;4953180;29;20050;-35
2023/10/17 11:27:54;;;;;;;13.05;8.85;;;13.60;95.70;;;;;;4953241;29;20593;-35
2023/10/17 11:30:32;;;;;;;12.55;8.27;;;13.60;95.90;;;;;;4953166;29;20034;-35
2023/10/17 11:33:05;;;;;;;18.05;11.30;;;13.50;96.00;;;;;;4953002;29;20028;-36
2023/10/17 11:35:34;;;;;;;13.23;8.95;;;13.60;95.90;;;;;;4953626;29;20043;-35
2023/10/17 11:38:00;;;;;;;15.35;10.57;;;13.50;95.60;;;;;;4953352;29;20050;-35
2023/10/17 11:40:30;;;;;;;16.00;9.43;;;13.50;95.70;;;;;;4953525;29;20031;-35
2023/10/17 11:42:59;;;;;;;19.92;12.73;;;13.40;96.00;;;;;;4954245;29;20075;-36
2023/10/17 11:45:33;;;;;;;13.93;9.23;;;13.30;95.90;;;;;;4953064;29;20089;-35
2023/10/17 11:48:14;;;;;;;;;;;13.30;96.30;;;;;;4953859;29;20027;-36
2023/10/17 11:50:40;;;;;;;15.23;9.15;;;13.20;96.20;;;;;;4953035;29;20372;-35
2023/10/17 11:53:10;;;;;;;14.32;8.38;;;13.30;96.40;;;;;;4952970;29;20612;-35
2023/10/17 11:55:48;;;;;;;18.17;10.02;;;13.40;96.20;;;;;;4953132;29;20028;-39
2023/10/17 11:58:25;;;;;;;18.92;9.35;;;13.40;96.00;;;;;;4953125;29;20348;-36
2023/10/17 12:00:51;;;;;;;12.68;7.60;;;13.50;96.10;;;;;;4953032;29;20023;-35
2023/10/17 12:03:20;;;;;;;9.90;7.95;;;13.40;95.70;;;;;;4953273;29;20470;-35
2023/10/17 12:05:46;;;;;;;10.98;7.97;;;13.20;95.90;;;;;;4953090;29;20460;-34
2023/10/17 12:08:22;;;;;;;15.75;8.02;;;13.30;96.10;;;;;;4953240;29;20032;-35
2023/10/17 12:10:53;;;;;;;11.98;7.43;;;13.30;96.20;;;;;;4953003;29;20035;-34
2023/10/17 12:13:19;;;;;;;14.93;8.52;;;13.30;95.90;;;;;;4952887;29;20055;-35
2023/10/17 12:15:45;;;;;;;13.43;7.60;;;13.20;96.00;;;;;;4952972;29;20031;-35
2023/10/17 12:18:14;;;;;;;29.58;12.88;;;13.20;96.00;;;;;;4952806;29;20027;-36
2023/10/17 12:20:40;;;;;;;10.90;7.07;;;13.30;96.00;;;;;;4952849;29;20074;-37
2023/10/17 12:23:10;;;;;;;25.83;14.00;;;13.30;96.00;;;;;;4952785;29;20035;-35
2023/10/17 12:25:37;;;;;;;8.77;6.45;;;13.40;95.80;;;;;;4952562;29;20362;-34
2023/10/17 12:28:06;;;;;;;14.38;6.88;;;13.40;95.80;;;;;;4952866;29;20059;-38
2023/10/17 12:30:36;;;;;;;11.88;7.05;;;13.50;95.90;;;;;;4952853;29;20070;-36
2023/10/17 12:33:02;;;;;;;10.55;7.28;;;13.50;96.00;;;;;;4952683;29;20035;-38
2023/10/17 12:35:30;;;;;;;14.68;7.65;;;13.50;96.00;;;;;;4952637;29;20038;-35
2023/10/17 12:38:05;;;;;;;13.43;7.57;;;13.40;96.10;;;;;;4952520;29;20023;-35
2023/10/17 12:40:31;;;;;;;14.73;7.20;;;13.40;96.50;;;;;;4952674;29;20038;-36
2023/10/17 12:42:57;;;;;;;9.95;7.63;;;13.40;96.20;;;;;;4952843;28;20035;-35
2023/10/17 12:45:24;;;;;;;10.77;6.63;;;13.40;96.10;;;;;;4956304;29;20027;-40
2023/10/17 12:47:50;;;;;;;10.75;5.70;;;13.50;96.20;;;;;;4956076;29;20051;-34
2023/10/17 12:50:16;;;;;;;10.25;5.45;;;13.60;96.10;;;;;;4955998;29;20085;-37
2023/10/17 12:52:41;;;;;;;7.97;4.78;;;13.80;95.80;;;;;;4955780;29;20027;-37
2023/10/17 12:55:07;;;;;;;9.02;4.07;;;13.90;95.60;;;;;;4954133;28;20118;-36
2023/10/17 12:57:38;;;;;;;6.40;3.80;;;14.10;95.40;;;;;;4955926;29;20027;-38
2023/10/17 13:00:09;;;;;;;6.45;3.53;;;14.20;95.20;;;;;;4955861;29;20023;-37
2023/10/17 13:02:35;;;;;;;4.75;3.30;;;14.30;95.00;;;;;;4955981;29;20023;-37
2023/10/17 13:05:01;;;;;;;4.82;2.58;;;14.40;94.90;;;;;;4955713;29;20485;-38
2023/10/17 13:07:27;;;;;;;4.80;2.33;;;14.50;94.80;;;;;;4955659;29;20039;-38
2023/10/17 13:09:53;;;;;;;10.40;2.78;;;14.60;94.70;;;;;;4956071;29;20042;-35
2023/10/17 13:12:19;;;;;;;6.65;2.28;;;14.60;94.50;;;;;;4955906;29;20042;-36
2023/10/17 13:14:44;;;;;;;5.13;2.00;;;14.70;94.80;;;;;;4955707;29;20022;-36
2023/10/17 13:17:12;;;;;;;4.30;2.47;;;14.80;94.40;;;;;;4955987;29;20031;-35
2023/10/17 13:19:40;;;;;;;3.35;1.92;;;14.80;94.60;;;;;;4955439;29;20470;-39
2023/10/17 13:22:08;;;;;;;3.42;1.90;;;14.90;94.20;;;;;;4955437;29;20035;-37
2023/10/17 13:24:35;;;;;;;4.43;2.00;;;15.00;94.10;;;;;;4955417;29;20031;-39
2023/10/17 13:27:04;;;;;;;5.28;1.88;;;15.00;94.10;;;;;;4955421;29;20031;-39
2023/10/17 13:29:31;;;;;;;4.65;2.03;;;15.00;94.00;;;;;;4955767;29;20037;-36
2023/10/17 13:31:57;;;;;;;9.95;7.07;;;15.10;93.90;;;;;;4955193;29;20421;-36
2023/10/17 13:34:25;;;;;;;11.18;6.78;;;14.80;94.40;;;;;;4955096;29;20027;-35
2023/10/17 13:36:51;;;;;;;14.93;6.72;;;14.70;94.80;;;;;;4955044;29;20020;-35
2023/10/17 13:39:17;;;;;;;38.78;20.70;;;14.60;94.80;;;;;;4954946;29;20035;-35
2023/10/17 13:41:43;;;;;;;10.15;7.32;;;14.40;94.80;;;;;;4955928;29;20054;-42
2023/10/17 13:44:11;;;;;;;9.65;6.75;;;14.40;95.00;;;;;;4954064;29;20486;-39
2023/10/17 13:46:37;;;;;;;18.33;9.07;;;14.50;95.00;;;;;;4937527;29;20046;-41
2023/10/17 13:49:02;;;;;;;15.10;7.80;;;14.40;95.10;;;;;;4955003;29;20024;-39
2023/10/17 13:51:34;;;;;;;11.73;6.88;;;14.40;95.30;;;;;;4955089;29;20081;-39
2023/10/17 13:54:00;;;;;;;14.35;6.25;;;14.40;95.20;;;;;;4954798;28;20034;-41
2023/10/17 13:56:27;;;;;;;30.60;12.55;;;14.40;95.40;;;;;;4954681;29;20560;-39
2023/10/17 13:58:53;;;;;;;11.43;6.60;;;14.40;95.50;;;;;;4954800;29;20032;-38
2023/10/17 14:01:27;;;;;;;15.70;6.47;;;14.50;95.40;;;;;;4954705;29;20625;-38
2023/10/17 14:03:57;;;;;;;11.95;6.25;;;14.50;95.30;;;;;;4954647;29;20560;-39
2023/10/17 14:06:23;;;;;;;13.85;6.93;;;14.40;95.10;;;;;;4953889;28;20397;-42
2023/10/17 14:08:50;;;;;;;21.92;6.18;;;14.50;95.20;;;;;;4949962;29;20082;-39
2023/10/17 14:11:19;;;;;;;14.00;6.38;;;14.40;94.90;;;;;;4954547;29;20074;-39
2023/10/17 14:13:49;;;;;;;14.55;6.22;;;14.40;95.20;;;;;;4954424;29;20481;-39
2023/10/17 14:16:15;;;;;;;10.85;5.63;;;14.40;94.90;;;;;;4954123;29;20503;-41
2023/10/17 14:18:43;;;;;;;10.88;6.32;;;14.40;94.90;;;;;;4954473;29;20429;-41
2023/10/17 14:21:34;;;;;;;10.93;5.80;;;14.40;95.00;;;;;;4954393;29;20023;-42
2023/10/17 14:24:07;;;;;;;10.27;5.88;;;14.50;95.10;;;;;;4954484;29;20035;-43
2023/10/17 14:26:33;;;;;;;11.77;5.97;;;14.50;95.10;;;;;;4954097;29;20481;-39
2023/10/17 14:29:00;;;;;;;8.75;5.72;;;14.50;95.40;;;;;;4954292;29;20027;-41
2023/10/17 14:31:26;;;;;;;11.70;5.93;;;14.50;95.30;;;;;;4954129;29;20019;-42
2023/10/17 14:33:52;;;;;;;10.48;6.00;;;14.50;95.30;;;;;;4954167;29;20024;-41
2023/10/17 14:36:18;;;;;;;8.88;6.30;;;14.40;95.30;;;;;;4954014;29;20027;-38
2023/10/17 14:38:44;;;;;;;11.32;6.22;;;14.40;95.50;;;;;;4953782;29;20078;-45
2023/10/17 14:41:11;;;;;;;10.75;6.43;;;14.40;95.60;;;;;;4953974;29;20078;-41
2023/10/17 14:43:43;;;;;;;17.10;6.43;;;14.40;95.80;;;;;;4954107;29;20046;-39
2023/10/17 14:46:09;;;;;;;11.57;6.22;;;14.40;95.80;;;;;;4953903;29;20027;-40
2023/10/17 14:48:36;;;;;;;15.32;6.90;;;14.40;95.80;;;;;;4954518;29;20425;-43
2023/10/17 14:51:02;;;;;;;14.10;7.22;;;14.40;95.90;;;;;;4954020;29;20023;-41
2023/10/17 14:53:28;;;;;;;10.02;6.53;;;14.30;96.00;;;;;;4953775;29;20062;-39
2023/10/17 14:55:58;;;;;;;12.93;6.43;;;14.30;96.00;;;;;;4953694;29;20024;-45
2023/10/17 14:58:24;;;;;;;8.18;6.03;;;14.30;96.20;;;;;;4953823;29;20042;-41
2023/10/17 15:00:52;;;;;;;12.98;6.75;;;14.30;96.20;;;;;;4953831;29;20082;-39